sensor_id;sensor_type;location;lat;lon;timestamp;temperature;humidity
45785;DHT22;31489;51.404;5.474;2024-02-16T00:00:18;15.80;81.10
45785;DHT22;31489;51.404;5.474;2024-02-16T00:02:44;15.80;81.20
45785;DHT22;31489;51.404;5.474;2024-02-16T00:05:11;15.70;81.20
45785;DHT22;31489;51.404;5.474;2024-02-16T00:07:38;15.70;81.30
45785;DHT22;31489;51.404;5.474;2024-02-16T00:10:07;15.70;81.40
45785;DHT22;31489;51.404;5.474;2024-02-16T00:12:34;15.70;81.30
45785;DHT22;31489;51.404;5.474;2024-02-16T00:15:00;15.70;81.60
45785;DHT22;31489;51.404;5.474;2024-02-16T00:17:26;15.70;81.70
45785;DHT22;31489;51.404;5.474;2024-02-16T00:19:58;15.60;81.80
45785;DHT22;31489;51.404;5.474;2024-02-16T00:22:24;15.60;81.60
45785;DHT22;31489;51.404;5.474;2024-02-16T00:24:50;15.60;82.00
45785;DHT22;31489;51.404;5.474;2024-02-16T00:27:16;15.60;82.10
45785;DHT22;31489;51.404;5.474;2024-02-16T00:29:42;15.60;82.20
45785;DHT22;31489;51.404;5.474;2024-02-16T00:32:08;15.60;82.20
45785;DHT22;31489;51.404;5.474;2024-02-16T00:34:35;15.60;82.20
45785;DHT22;31489;51.404;5.474;2024-02-16T00:37:00;15.60;82.20
45785;DHT22;31489;51.404;5.474;2024-02-16T00:39:26;15.60;82.20
45785;DHT22;31489;51.404;5.474;2024-02-16T00:41:52;15.50;82.10
45785;DHT22;31489;51.404;5.474;2024-02-16T00:44:18;15.50;82.00
45785;DHT22;31489;51.404;5.474;2024-02-16T00:46:44;15.50;82.00
45785;DHT22;31489;51.404;5.474;2024-02-16T00:49:10;15.50;82.10
45785;DHT22;31489;51.404;5.474;2024-02-16T00:51:39;15.50;82.10
45785;DHT22;31489;51.404;5.474;2024-02-16T00:54:05;15.40;81.80
45785;DHT22;31489;51.404;5.474;2024-02-16T00:56:31;15.40;81.90
45785;DHT22;31489;51.404;5.474;2024-02-16T00:58:57;15.40;82.00
45785;DHT22;31489;51.404;5.474;2024-02-16T01:01:23;15.40;82.00
45785;DHT22;31489;51.404;5.474;2024-02-16T01:03:52;15.30;81.90
45785;DHT22;31489;51.404;5.474;2024-02-16T01:06:18;15.30;81.90
45785;DHT22;31489;51.404;5.474;2024-02-16T01:08:47;15.30;81.90
45785;DHT22;31489;51.404;5.474;2024-02-16T01:11:13;15.20;81.80
45785;DHT22;31489;51.404;5.474;2024-02-16T01:13:39;15.20;82.10
45785;DHT22;31489;51.404;5.474;2024-02-16T01:16:08;15.20;82.10
45785;DHT22;31489;51.404;5.474;2024-02-16T01:18:35;15.20;82.10
45785;DHT22;31489;51.404;5.474;2024-02-16T01:21:02;15.10;82.00
45785;DHT22;31489;51.404;5.474;2024-02-16T01:23:31;15.10;82.60
45785;DHT22;31489;51.404;5.474;2024-02-16T01:25:57;15.10;82.10
45785;DHT22;31489;51.404;5.474;2024-02-16T01:28:23;15.00;82.10
45785;DHT22;31489;51.404;5.474;2024-02-16T01:30:50;15.00;82.10
45785;DHT22;31489;51.404;5.474;2024-02-16T01:33:15;15.00;82.00
45785;DHT22;31489;51.404;5.474;2024-02-16T01:35:41;15.00;82.10
45785;DHT22;31489;51.404;5.474;2024-02-16T01:38:07;14.90;82.10
45785;DHT22;31489;51.404;5.474;2024-02-16T01:40:32;14.90;82.20
45785;DHT22;31489;51.404;5.474;2024-02-16T01:42:58;14.90;82.20
45785;DHT22;31489;51.404;5.474;2024-02-16T01:45:24;14.90;82.30
45785;DHT22;31489;51.404;5.474;2024-02-16T01:47:50;14.80;82.30
45785;DHT22;31489;51.404;5.474;2024-02-16T01:50:18;14.80;82.30
45785;DHT22;31489;51.404;5.474;2024-02-16T01:52:45;14.70;82.30
45785;DHT22;31489;51.404;5.474;2024-02-16T01:55:11;14.80;82.40
45785;DHT22;31489;51.404;5.474;2024-02-16T01:57:42;14.70;82.50
45785;DHT22;31489;51.404;5.474;2024-02-16T02:00:08;14.70;83.00
45785;DHT22;31489;51.404;5.474;2024-02-16T02:02:37;14.70;82.70
45785;DHT22;31489;51.404;5.474;2024-02-16T02:05:03;14.70;82.60
45785;DHT22;31489;51.404;5.474;2024-02-16T02:07:29;14.70;82.80
45785;DHT22;31489;51.404;5.474;2024-02-16T02:09:55;14.60;82.80
45785;DHT22;31489;51.404;5.474;2024-02-16T02:12:21;14.60;82.80
45785;DHT22;31489;51.404;5.474;2024-02-16T02:14:48;14.60;82.90
45785;DHT22;31489;51.404;5.474;2024-02-16T02:17:14;14.60;82.90
45785;DHT22;31489;51.404;5.474;2024-02-16T02:19:40;14.60;83.00
45785;DHT22;31489;51.404;5.474;2024-02-16T02:22:21;14.60;83.10
45785;DHT22;31489;51.404;5.474;2024-02-16T02:24:47;14.60;82.90
45785;DHT22;31489;51.404;5.474;2024-02-16T02:27:14;14.60;83.40
45785;DHT22;31489;51.404;5.474;2024-02-16T02:29:41;14.60;83.50
45785;DHT22;31489;51.404;5.474;2024-02-16T02:32:07;14.60;83.60
45785;DHT22;31489;51.404;5.474;2024-02-16T02:34:33;14.60;83.60
45785;DHT22;31489;51.404;5.474;2024-02-16T02:36:59;14.60;83.70
45785;DHT22;31489;51.404;5.474;2024-02-16T02:39:25;14.60;83.80
45785;DHT22;31489;51.404;5.474;2024-02-16T02:41:51;14.70;83.80
45785;DHT22;31489;51.404;5.474;2024-02-16T02:44:17;14.60;84.40
45785;DHT22;31489;51.404;5.474;2024-02-16T02:46:44;14.70;83.90
45785;DHT22;31489;51.404;5.474;2024-02-16T02:49:10;14.70;83.80
45785;DHT22;31489;51.404;5.474;2024-02-16T02:51:35;14.70;83.70
45785;DHT22;31489;51.404;5.474;2024-02-16T02:54:01;14.70;83.60
45785;DHT22;31489;51.404;5.474;2024-02-16T02:56:27;14.70;83.60
45785;DHT22;31489;51.404;5.474;2024-02-16T02:58:52;14.70;83.40
45785;DHT22;31489;51.404;5.474;2024-02-16T03:01:18;14.70;83.40
45785;DHT22;31489;51.404;5.474;2024-02-16T03:03:46;14.70;83.10
45785;DHT22;31489;51.404;5.474;2024-02-16T03:06:12;14.70;83.60
45785;DHT22;31489;51.404;5.474;2024-02-16T03:08:38;14.70;82.90
45785;DHT22;31489;51.404;5.474;2024-02-16T03:11:05;14.70;82.80
45785;DHT22;31489;51.404;5.474;2024-02-16T03:13:31;14.70;82.70
45785;DHT22;31489;51.404;5.474;2024-02-16T03:15:57;14.70;82.70
45785;DHT22;31489;51.404;5.474;2024-02-16T03:18:23;14.70;82.80
45785;DHT22;31489;51.404;5.474;2024-02-16T03:20:49;14.80;82.70
45785;DHT22;31489;51.404;5.474;2024-02-16T03:23:16;14.80;82.70
45785;DHT22;31489;51.404;5.474;2024-02-16T03:25:41;14.80;82.70
45785;DHT22;31489;51.404;5.474;2024-02-16T03:28:13;14.80;82.70
45785;DHT22;31489;51.404;5.474;2024-02-16T03:30:39;14.90;82.20
45785;DHT22;31489;51.404;5.474;2024-02-16T03:33:05;14.90;82.80
45785;DHT22;31489;51.404;5.474;2024-02-16T03:35:31;14.90;82.70
45785;DHT22;31489;51.404;5.474;2024-02-16T03:37:56;14.90;82.50
45785;DHT22;31489;51.404;5.474;2024-02-16T03:40:24;14.90;82.40
45785;DHT22;31489;51.404;5.474;2024-02-16T03:42:50;14.90;82.10
45785;DHT22;31489;51.404;5.474;2024-02-16T03:45:19;15.00;82.40
45785;DHT22;31489;51.404;5.474;2024-02-16T03:47:45;15.00;82.20
45785;DHT22;31489;51.404;5.474;2024-02-16T03:50:10;15.00;82.10
45785;DHT22;31489;51.404;5.474;2024-02-16T03:52:37;15.10;82.10
45785;DHT22;31489;51.404;5.474;2024-02-16T03:55:03;15.00;81.90
45785;DHT22;31489;51.404;5.474;2024-02-16T03:57:30;15.10;82.10
45785;DHT22;31489;51.404;5.474;2024-02-16T03:59:56;15.10;81.90
45785;DHT22;31489;51.404;5.474;2024-02-16T04:02:21;15.10;82.00
45785;DHT22;31489;51.404;5.474;2024-02-16T04:04:47;15.10;81.90
45785;DHT22;31489;51.404;5.474;2024-02-16T04:07:12;15.20;82.00
45785;DHT22;31489;51.404;5.474;2024-02-16T04:09:38;15.20;81.90
45785;DHT22;31489;51.404;5.474;2024-02-16T04:12:04;15.20;82.00
45785;DHT22;31489;51.404;5.474;2024-02-16T04:14:30;15.20;81.80
45785;DHT22;31489;51.404;5.474;2024-02-16T04:16:56;15.20;81.80
45785;DHT22;31489;51.404;5.474;2024-02-16T04:19:31;15.20;81.90
45785;DHT22;31489;51.404;5.474;2024-02-16T04:21:56;15.20;81.90
45785;DHT22;31489;51.404;5.474;2024-02-16T04:24:22;15.20;81.80
45785;DHT22;31489;51.404;5.474;2024-02-16T04:26:47;15.30;81.80
45785;DHT22;31489;51.404;5.474;2024-02-16T04:29:14;15.30;81.80
45785;DHT22;31489;51.404;5.474;2024-02-16T04:31:40;15.30;81.80
45785;DHT22;31489;51.404;5.474;2024-02-16T04:34:10;15.30;81.90
45785;DHT22;31489;51.404;5.474;2024-02-16T04:36:35;15.30;81.80
45785;DHT22;31489;51.404;5.474;2024-02-16T04:39:04;15.30;81.80
45785;DHT22;31489;51.404;5.474;2024-02-16T04:41:29;15.30;81.80
45785;DHT22;31489;51.404;5.474;2024-02-16T04:43:55;15.30;81.90
45785;DHT22;31489;51.404;5.474;2024-02-16T04:46:21;15.30;81.90
45785;DHT22;31489;51.404;5.474;2024-02-16T04:48:47;15.30;81.90
45785;DHT22;31489;51.404;5.474;2024-02-16T04:51:12;15.30;81.90
45785;DHT22;31489;51.404;5.474;2024-02-16T04:53:38;15.30;81.90
45785;DHT22;31489;51.404;5.474;2024-02-16T04:56:04;15.30;81.90
45785;DHT22;31489;51.404;5.474;2024-02-16T04:58:30;15.40;82.00
45785;DHT22;31489;51.404;5.474;2024-02-16T05:00:56;15.30;82.00
45785;DHT22;31489;51.404;5.474;2024-02-16T05:03:22;15.40;82.00
45785;DHT22;31489;51.404;5.474;2024-02-16T05:05:47;15.30;82.00
45785;DHT22;31489;51.404;5.474;2024-02-16T05:08:13;15.30;81.90
45785;DHT22;31489;51.404;5.474;2024-02-16T05:10:39;15.40;82.00
45785;DHT22;31489;51.404;5.474;2024-02-16T05:13:04;15.30;81.90
45785;DHT22;31489;51.404;5.474;2024-02-16T05:15:30;15.40;82.10
45785;DHT22;31489;51.404;5.474;2024-02-16T05:17:56;15.40;82.10
45785;DHT22;31489;51.404;5.474;2024-02-16T05:20:23;15.40;82.10
45785;DHT22;31489;51.404;5.474;2024-02-16T05:22:48;15.40;82.20
45785;DHT22;31489;51.404;5.474;2024-02-16T05:25:18;15.40;82.10
45785;DHT22;31489;51.404;5.474;2024-02-16T05:27:44;15.40;81.80
45785;DHT22;31489;51.404;5.474;2024-02-16T05:30:12;15.50;82.20
45785;DHT22;31489;51.404;5.474;2024-02-16T05:32:41;15.50;82.10
45785;DHT22;31489;51.404;5.474;2024-02-16T05:35:08;15.50;82.30
45785;DHT22;31489;51.404;5.474;2024-02-16T05:37:43;15.50;82.20
45785;DHT22;31489;51.404;5.474;2024-02-16T05:40:17;15.60;82.20
45785;DHT22;31489;51.404;5.474;2024-02-16T05:42:57;15.60;82.10
45785;DHT22;31489;51.404;5.474;2024-02-16T05:45:26;15.60;82.10
45785;DHT22;31489;51.404;5.474;2024-02-16T05:47:52;15.60;82.00
45785;DHT22;31489;51.404;5.474;2024-02-16T05:50:20;15.60;82.10
45785;DHT22;31489;51.404;5.474;2024-02-16T05:52:46;15.60;81.90
45785;DHT22;31489;51.404;5.474;2024-02-16T05:55:12;15.70;82.30
45785;DHT22;31489;51.404;5.474;2024-02-16T05:57:38;15.70;82.10
45785;DHT22;31489;51.404;5.474;2024-02-16T06:00:06;15.70;82.10
45785;DHT22;31489;51.404;5.474;2024-02-16T06:02:32;15.80;82.10
45785;DHT22;31489;51.404;5.474;2024-02-16T06:04:59;15.80;82.20
45785;DHT22;31489;51.404;5.474;2024-02-16T06:07:25;15.80;82.10
45785;DHT22;31489;51.404;5.474;2024-02-16T06:09:51;15.90;82.10
45785;DHT22;31489;51.404;5.474;2024-02-16T06:12:17;15.90;82.00
45785;DHT22;31489;51.404;5.474;2024-02-16T06:14:43;15.90;81.90
45785;DHT22;31489;51.404;5.474;2024-02-16T06:17:08;16.00;82.00
45785;DHT22;31489;51.404;5.474;2024-02-16T06:19:37;16.00;81.80
45785;DHT22;31489;51.404;5.474;2024-02-16T06:22:03;16.10;81.70
45785;DHT22;31489;51.404;5.474;2024-02-16T06:24:29;16.10;81.60
45785;DHT22;31489;51.404;5.474;2024-02-16T06:26:55;16.10;81.50
45785;DHT22;31489;51.404;5.474;2024-02-16T06:29:20;16.10;81.50
45785;DHT22;31489;51.404;5.474;2024-02-16T06:31:46;16.20;81.40
45785;DHT22;31489;51.404;5.474;2024-02-16T06:34:15;16.20;81.30
45785;DHT22;31489;51.404;5.474;2024-02-16T06:36:41;16.20;81.30
45785;DHT22;31489;51.404;5.474;2024-02-16T06:39:07;16.20;81.20
45785;DHT22;31489;51.404;5.474;2024-02-16T06:41:33;16.20;81.20
45785;DHT22;31489;51.404;5.474;2024-02-16T06:43:58;16.20;81.10
45785;DHT22;31489;51.404;5.474;2024-02-16T06:46:24;16.30;81.10
45785;DHT22;31489;51.404;5.474;2024-02-16T06:48:54;16.30;81.00
45785;DHT22;31489;51.404;5.474;2024-02-16T06:51:23;16.20;81.00
45785;DHT22;31489;51.404;5.474;2024-02-16T06:53:49;16.20;81.00
45785;DHT22;31489;51.404;5.474;2024-02-16T06:56:14;16.20;81.00
45785;DHT22;31489;51.404;5.474;2024-02-16T06:58:43;16.30;81.10
45785;DHT22;31489;51.404;5.474;2024-02-16T07:01:08;16.30;80.80
45785;DHT22;31489;51.404;5.474;2024-02-16T07:03:34;16.30;81.00
45785;DHT22;31489;51.404;5.474;2024-02-16T07:06:02;16.30;81.20
45785;DHT22;31489;51.404;5.474;2024-02-16T07:08:28;16.20;81.10
45785;DHT22;31489;51.404;5.474;2024-02-16T07:10:54;16.30;81.20
45785;DHT22;31489;51.404;5.474;2024-02-16T07:13:21;16.30;81.20
45785;DHT22;31489;51.404;5.474;2024-02-16T07:15:47;16.30;81.10
45785;DHT22;31489;51.404;5.474;2024-02-16T07:18:13;16.30;81.30
45785;DHT22;31489;51.404;5.474;2024-02-16T07:20:38;16.30;81.50
45785;DHT22;31489;51.404;5.474;2024-02-16T07:23:13;16.30;81.30
45785;DHT22;31489;51.404;5.474;2024-02-16T07:25:41;16.30;81.30
45785;DHT22;31489;51.404;5.474;2024-02-16T07:28:07;16.30;81.30
45785;DHT22;31489;51.404;5.474;2024-02-16T07:30:34;16.30;81.30
45785;DHT22;31489;51.404;5.474;2024-02-16T07:32:59;16.30;81.30
45785;DHT22;31489;51.404;5.474;2024-02-16T07:35:25;16.30;81.30
45785;DHT22;31489;51.404;5.474;2024-02-16T07:37:51;16.30;81.30
45785;DHT22;31489;51.404;5.474;2024-02-16T07:40:20;16.30;81.80
45785;DHT22;31489;51.404;5.474;2024-02-16T07:42:46;16.30;81.40
45785;DHT22;31489;51.404;5.474;2024-02-16T07:45:14;16.30;81.50
45785;DHT22;31489;51.404;5.474;2024-02-16T07:47:43;16.30;81.50
45785;DHT22;31489;51.404;5.474;2024-02-16T07:50:09;16.30;81.30
45785;DHT22;31489;51.404;5.474;2024-02-16T07:52:38;16.30;81.40
45785;DHT22;31489;51.404;5.474;2024-02-16T07:55:07;16.30;81.30
45785;DHT22;31489;51.404;5.474;2024-02-16T07:57:33;16.40;81.60
45785;DHT22;31489;51.404;5.474;2024-02-16T08:00:04;16.30;82.10
45785;DHT22;31489;51.404;5.474;2024-02-16T08:02:29;16.40;81.40
45785;DHT22;31489;51.404;5.474;2024-02-16T08:04:55;16.40;81.80
45785;DHT22;31489;51.404;5.474;2024-02-16T08:07:21;16.40;81.80
45785;DHT22;31489;51.404;5.474;2024-02-16T08:09:47;16.40;81.80
45785;DHT22;31489;51.404;5.474;2024-02-16T08:12:13;16.40;81.90
45785;DHT22;31489;51.404;5.474;2024-02-16T08:14:39;16.40;81.90
45785;DHT22;31489;51.404;5.474;2024-02-16T08:17:06;16.40;82.00
45785;DHT22;31489;51.404;5.474;2024-02-16T08:19:33;16.40;82.10
45785;DHT22;31489;51.404;5.474;2024-02-16T08:22:00;16.40;82.00
45785;DHT22;31489;51.404;5.474;2024-02-16T08:24:26;16.40;82.10
45785;DHT22;31489;51.404;5.474;2024-02-16T08:26:52;16.40;82.20
45785;DHT22;31489;51.404;5.474;2024-02-16T08:29:17;16.40;82.30
45785;DHT22;31489;51.404;5.474;2024-02-16T08:31:43;16.50;82.40
45785;DHT22;31489;51.404;5.474;2024-02-16T08:34:09;16.40;82.20
45785;DHT22;31489;51.404;5.474;2024-02-16T08:36:36;16.50;82.40
45785;DHT22;31489;51.404;5.474;2024-02-16T08:39:01;16.50;82.50
45785;DHT22;31489;51.404;5.474;2024-02-16T08:41:27;16.50;82.40
45785;DHT22;31489;51.404;5.474;2024-02-16T08:43:53;16.50;82.40
45785;DHT22;31489;51.404;5.474;2024-02-16T08:46:18;16.50;82.40
45785;DHT22;31489;51.404;5.474;2024-02-16T08:48:45;16.50;82.50
45785;DHT22;31489;51.404;5.474;2024-02-16T08:51:11;16.50;82.40
45785;DHT22;31489;51.404;5.474;2024-02-16T08:53:37;16.50;82.40
45785;DHT22;31489;51.404;5.474;2024-02-16T08:56:02;16.50;82.50
45785;DHT22;31489;51.404;5.474;2024-02-16T08:58:28;16.60;82.50
45785;DHT22;31489;51.404;5.474;2024-02-16T09:00:53;16.60;82.40
45785;DHT22;31489;51.404;5.474;2024-02-16T09:03:19;16.60;82.40
45785;DHT22;31489;51.404;5.474;2024-02-16T09:05:45;16.60;82.60
45785;DHT22;31489;51.404;5.474;2024-02-16T09:08:11;16.60;82.60
45785;DHT22;31489;51.404;5.474;2024-02-16T09:10:37;16.60;82.60
45785;DHT22;31489;51.404;5.474;2024-02-16T09:13:02;16.60;82.50
45785;DHT22;31489;51.404;5.474;2024-02-16T09:15:28;16.60;82.50
45785;DHT22;31489;51.404;5.474;2024-02-16T09:17:54;16.60;82.50
45785;DHT22;31489;51.404;5.474;2024-02-16T09:20:19;16.70;83.00
45785;DHT22;31489;51.404;5.474;2024-02-16T09:22:48;16.70;83.30
45785;DHT22;31489;51.404;5.474;2024-02-16T09:25:14;16.70;83.30
45785;DHT22;31489;51.404;5.474;2024-02-16T09:27:40;16.70;82.80
45785;DHT22;31489;51.404;5.474;2024-02-16T09:30:13;16.70;82.80
45785;DHT22;31489;51.404;5.474;2024-02-16T09:32:40;16.70;82.50
45785;DHT22;31489;51.404;5.474;2024-02-16T09:35:07;16.70;82.60
45785;DHT22;31489;51.404;5.474;2024-02-16T09:37:32;16.80;82.70
45785;DHT22;31489;51.404;5.474;2024-02-16T09:39:58;16.80;82.70
45785;DHT22;31489;51.404;5.474;2024-02-16T09:42:29;16.80;82.90
45785;DHT22;31489;51.404;5.474;2024-02-16T09:44:55;16.80;82.90
45785;DHT22;31489;51.404;5.474;2024-02-16T09:47:22;16.80;83.10
45785;DHT22;31489;51.404;5.474;2024-02-16T09:49:48;16.80;83.30
45785;DHT22;31489;51.404;5.474;2024-02-16T09:52:14;16.80;83.30
45785;DHT22;31489;51.404;5.474;2024-02-16T09:54:40;16.80;83.60
45785;DHT22;31489;51.404;5.474;2024-02-16T09:57:06;16.70;83.70
45785;DHT22;31489;51.404;5.474;2024-02-16T09:59:32;16.70;83.90
45785;DHT22;31489;51.404;5.474;2024-02-16T10:02:01;16.60;84.80
45785;DHT22;31489;51.404;5.474;2024-02-16T10:04:27;16.60;84.40
45785;DHT22;31489;51.404;5.474;2024-02-16T10:06:53;16.60;84.50
45785;DHT22;31489;51.404;5.474;2024-02-16T10:09:26;16.50;84.60
45785;DHT22;31489;51.404;5.474;2024-02-16T10:11:52;16.50;84.90
45785;DHT22;31489;51.404;5.474;2024-02-16T10:14:18;16.50;85.00
45785;DHT22;31489;51.404;5.474;2024-02-16T10:16:58;16.50;85.30
45785;DHT22;31489;51.404;5.474;2024-02-16T10:19:27;16.40;85.30
45785;DHT22;31489;51.404;5.474;2024-02-16T10:21:53;16.50;85.40
45785;DHT22;31489;51.404;5.474;2024-02-16T10:24:21;16.40;85.60
45785;DHT22;31489;51.404;5.474;2024-02-16T10:26:47;16.40;85.70
45785;DHT22;31489;51.404;5.474;2024-02-16T10:29:18;16.40;85.80
45785;DHT22;31489;51.404;5.474;2024-02-16T10:31:50;16.50;86.10
45785;DHT22;31489;51.404;5.474;2024-02-16T10:34:16;16.50;86.20
45785;DHT22;31489;51.404;5.474;2024-02-16T10:36:44;16.40;86.30
45785;DHT22;31489;51.404;5.474;2024-02-16T10:39:10;16.50;87.10
45785;DHT22;31489;51.404;5.474;2024-02-16T10:41:44;16.50;86.50
45785;DHT22;31489;51.404;5.474;2024-02-16T10:44:11;16.50;86.50
45785;DHT22;31489;51.404;5.474;2024-02-16T10:46:37;16.50;86.70
45785;DHT22;31489;51.404;5.474;2024-02-16T10:49:04;16.50;86.90
45785;DHT22;31489;51.404;5.474;2024-02-16T10:51:37;16.50;87.10
45785;DHT22;31489;51.404;5.474;2024-02-16T10:54:04;16.50;87.10
45785;DHT22;31489;51.404;5.474;2024-02-16T10:56:35;16.40;87.10
45785;DHT22;31489;51.404;5.474;2024-02-16T10:59:07;16.40;87.20
45785;DHT22;31489;51.404;5.474;2024-02-16T11:01:41;16.40;87.60
45785;DHT22;31489;51.404;5.474;2024-02-16T11:04:09;16.30;87.60
45785;DHT22;31489;51.404;5.474;2024-02-16T11:06:52;16.30;87.80
45785;DHT22;31489;51.404;5.474;2024-02-16T11:09:28;16.30;88.20
45785;DHT22;31489;51.404;5.474;2024-02-16T11:11:58;16.20;88.20
45785;DHT22;31489;51.404;5.474;2024-02-16T11:14:37;16.30;88.30
45785;DHT22;31489;51.404;5.474;2024-02-16T11:19:46;16.20;88.80
45785;DHT22;31489;51.404;5.474;2024-02-16T11:22:16;16.20;88.70
45785;DHT22;31489;51.404;5.474;2024-02-16T11:24:44;16.20;88.80
45785;DHT22;31489;51.404;5.474;2024-02-16T11:27:12;16.20;88.90
45785;DHT22;31489;51.404;5.474;2024-02-16T11:29:38;16.20;89.10
45785;DHT22;31489;51.404;5.474;2024-02-16T11:32:05;16.20;89.10
45785;DHT22;31489;51.404;5.474;2024-02-16T11:34:31;16.20;89.10
45785;DHT22;31489;51.404;5.474;2024-02-16T11:37:01;16.20;89.10
45785;DHT22;31489;51.404;5.474;2024-02-16T11:39:28;16.20;89.20
45785;DHT22;31489;51.404;5.474;2024-02-16T11:42:07;16.20;89.10
45785;DHT22;31489;51.404;5.474;2024-02-16T11:44:36;16.30;89.20
45785;DHT22;31489;51.404;5.474;2024-02-16T11:47:05;16.20;89.20
45785;DHT22;31489;51.404;5.474;2024-02-16T11:49:34;16.30;89.30
45785;DHT22;31489;51.404;5.474;2024-02-16T11:52:00;16.30;89.40
45785;DHT22;31489;51.404;5.474;2024-02-16T11:54:26;16.30;89.40
45785;DHT22;31489;51.404;5.474;2024-02-16T11:56:52;16.30;89.40
45785;DHT22;31489;51.404;5.474;2024-02-16T11:59:19;16.30;89.40
45785;DHT22;31489;51.404;5.474;2024-02-16T12:01:55;16.30;89.50
45785;DHT22;31489;51.404;5.474;2024-02-16T12:04:28;16.30;89.60
45785;DHT22;31489;51.404;5.474;2024-02-16T12:06:59;16.30;89.70
45785;DHT22;31489;51.404;5.474;2024-02-16T12:09:25;16.20;89.70
45785;DHT22;31489;51.404;5.474;2024-02-16T12:11:52;16.20;89.70
45785;DHT22;31489;51.404;5.474;2024-02-16T12:14:19;16.20;89.80
45785;DHT22;31489;51.404;5.474;2024-02-16T12:17:05;16.20;89.80
45785;DHT22;31489;51.404;5.474;2024-02-16T12:19:32;16.20;89.90
45785;DHT22;31489;51.404;5.474;2024-02-16T12:21:58;16.30;90.00
45785;DHT22;31489;51.404;5.474;2024-02-16T12:24:24;16.20;90.00
45785;DHT22;31489;51.404;5.474;2024-02-16T12:26:50;16.20;90.00
45785;DHT22;31489;51.404;5.474;2024-02-16T12:29:16;16.20;90.00
45785;DHT22;31489;51.404;5.474;2024-02-16T12:31:43;16.30;90.00
45785;DHT22;31489;51.404;5.474;2024-02-16T12:34:10;16.20;90.00
45785;DHT22;31489;51.404;5.474;2024-02-16T12:36:38;16.20;90.10
45785;DHT22;31489;51.404;5.474;2024-02-16T12:39:04;16.20;90.10
45785;DHT22;31489;51.404;5.474;2024-02-16T12:41:34;16.20;90.00
45785;DHT22;31489;51.404;5.474;2024-02-16T12:44:01;16.10;90.10
45785;DHT22;31489;51.404;5.474;2024-02-16T12:46:27;16.10;90.20
45785;DHT22;31489;51.404;5.474;2024-02-16T12:48:56;16.10;90.20
45785;DHT22;31489;51.404;5.474;2024-02-16T12:51:22;16.10;90.20
45785;DHT22;31489;51.404;5.474;2024-02-16T12:53:47;16.10;90.30
45785;DHT22;31489;51.404;5.474;2024-02-16T12:56:13;16.00;90.30
45785;DHT22;31489;51.404;5.474;2024-02-16T12:58:39;16.00;90.30
45785;DHT22;31489;51.404;5.474;2024-02-16T13:01:05;16.00;90.40
45785;DHT22;31489;51.404;5.474;2024-02-16T13:03:34;16.00;90.50
45785;DHT22;31489;51.404;5.474;2024-02-16T13:06:00;15.90;90.50
45785;DHT22;31489;51.404;5.474;2024-02-16T13:08:27;15.90;90.50
45785;DHT22;31489;51.404;5.474;2024-02-16T13:10:52;15.90;90.60
45785;DHT22;31489;51.404;5.474;2024-02-16T13:13:18;15.90;90.60
45785;DHT22;31489;51.404;5.474;2024-02-16T13:15:43;15.90;90.70
45785;DHT22;31489;51.404;5.474;2024-02-16T13:18:09;15.90;90.70
45785;DHT22;31489;51.404;5.474;2024-02-16T13:20:35;15.90;90.70
45785;DHT22;31489;51.404;5.474;2024-02-16T13:23:01;15.90;90.70
45785;DHT22;31489;51.404;5.474;2024-02-16T13:25:26;15.80;90.60
45785;DHT22;31489;51.404;5.474;2024-02-16T13:27:52;15.80;90.60
45785;DHT22;31489;51.404;5.474;2024-02-16T13:30:18;15.80;90.70
45785;DHT22;31489;51.404;5.474;2024-02-16T13:32:43;15.80;90.60
45785;DHT22;31489;51.404;5.474;2024-02-16T13:35:09;15.80;90.60
45785;DHT22;31489;51.404;5.474;2024-02-16T13:37:35;15.80;90.50
45785;DHT22;31489;51.404;5.474;2024-02-16T13:40:02;15.70;90.50
45785;DHT22;31489;51.404;5.474;2024-02-16T13:42:32;15.70;90.60
45785;DHT22;31489;51.404;5.474;2024-02-16T13:44:57;15.70;90.60
45785;DHT22;31489;51.404;5.474;2024-02-16T13:47:23;15.70;90.60
45785;DHT22;31489;51.404;5.474;2024-02-16T13:49:49;15.70;90.60
45785;DHT22;31489;51.404;5.474;2024-02-16T13:52:16;15.60;90.60
45785;DHT22;31489;51.404;5.474;2024-02-16T13:54:41;15.70;90.80
45785;DHT22;31489;51.404;5.474;2024-02-16T13:57:07;15.70;90.60
45785;DHT22;31489;51.404;5.474;2024-02-16T13:59:32;15.60;90.60
45785;DHT22;31489;51.404;5.474;2024-02-16T14:01:59;15.60;90.60
45785;DHT22;31489;51.404;5.474;2024-02-16T14:04:25;15.60;90.60
45785;DHT22;31489;51.404;5.474;2024-02-16T14:06:52;15.70;90.60
45785;DHT22;31489;51.404;5.474;2024-02-16T14:09:18;15.70;90.60
45785;DHT22;31489;51.404;5.474;2024-02-16T14:11:47;15.70;90.60
45785;DHT22;31489;51.404;5.474;2024-02-16T14:14:13;15.70;90.50
45785;DHT22;31489;51.404;5.474;2024-02-16T14:16:38;15.60;90.50
45785;DHT22;31489;51.404;5.474;2024-02-16T14:19:05;15.70;90.40
45785;DHT22;31489;51.404;5.474;2024-02-16T14:21:31;15.60;90.40
45785;DHT22;31489;51.404;5.474;2024-02-16T14:23:58;15.60;90.30
45785;DHT22;31489;51.404;5.474;2024-02-16T14:26:23;15.70;90.40
45785;DHT22;31489;51.404;5.474;2024-02-16T14:28:49;15.60;90.40
45785;DHT22;31489;51.404;5.474;2024-02-16T14:31:15;15.70;90.50
45785;DHT22;31489;51.404;5.474;2024-02-16T14:33:42;15.60;90.40
45785;DHT22;31489;51.404;5.474;2024-02-16T14:36:09;15.70;90.50
45785;DHT22;31489;51.404;5.474;2024-02-16T14:38:35;15.70;90.50
45785;DHT22;31489;51.404;5.474;2024-02-16T14:41:01;15.70;90.40
45785;DHT22;31489;51.404;5.474;2024-02-16T14:43:31;15.70;90.30
45785;DHT22;31489;51.404;5.474;2024-02-16T14:45:58;15.70;90.40
45785;DHT22;31489;51.404;5.474;2024-02-16T14:48:24;15.70;90.30
45785;DHT22;31489;51.404;5.474;2024-02-16T14:50:51;15.70;90.30
45785;DHT22;31489;51.404;5.474;2024-02-16T14:53:20;15.70;90.20
45785;DHT22;31489;51.404;5.474;2024-02-16T14:55:47;15.70;90.20
45785;DHT22;31489;51.404;5.474;2024-02-16T14:58:13;15.70;90.30
45785;DHT22;31489;51.404;5.474;2024-02-16T15:00:38;15.70;90.20
45785;DHT22;31489;51.404;5.474;2024-02-16T15:03:04;15.70;90.20
45785;DHT22;31489;51.404;5.474;2024-02-16T15:05:30;15.70;90.20
45785;DHT22;31489;51.404;5.474;2024-02-16T15:07:56;15.70;90.20
45785;DHT22;31489;51.404;5.474;2024-02-16T15:10:21;15.70;90.10
45785;DHT22;31489;51.404;5.474;2024-02-16T15:12:47;15.60;90.10
45785;DHT22;31489;51.404;5.474;2024-02-16T15:15:13;15.60;90.20
45785;DHT22;31489;51.404;5.474;2024-02-16T15:17:39;15.70;90.10
45785;DHT22;31489;51.404;5.474;2024-02-16T15:20:05;15.60;90.10
45785;DHT22;31489;51.404;5.474;2024-02-16T15:22:32;15.60;90.10
45785;DHT22;31489;51.404;5.474;2024-02-16T15:24:58;15.60;90.10
45785;DHT22;31489;51.404;5.474;2024-02-16T15:27:24;15.60;90.10
45785;DHT22;31489;51.404;5.474;2024-02-16T15:29:53;15.60;90.10